sensor_id;sensor_type;location;lat;lon;timestamp;pressure;altitude;pressure_sealevel;temperature;humidity
8653;BME280;4364;52.426;9.424;2022-12-18T00:03:42;102514.38;;;-8.34;85.46
8653;BME280;4364;52.426;9.424;2022-12-18T00:06:10;102516.50;;;-8.39;85.75
8653;BME280;4364;52.426;9.424;2022-12-18T00:08:37;102520.72;;;-8.36;85.45
8653;BME280;4364;52.426;9.424;2022-12-18T00:11:06;102515.34;;;-8.35;85.55
8653;BME280;4364;52.426;9.424;2022-12-18T00:13:33;102520.13;;;-8.40;85.21
8653;BME280;4364;52.426;9.424;2022-12-18T00:16:05;102519.94;;;-8.50;84.78
8653;BME280;4364;52.426;9.424;2022-12-18T00:18:32;102521.59;;;-8.49;85.31
8653;BME280;4364;52.426;9.424;2022-12-18T00:21:00;102524.13;;;-8.47;85.31
8653;BME280;4364;52.426;9.424;2022-12-18T00:23:28;102525.75;;;-8.45;85.31
8653;BME280;4364;52.426;9.424;2022-12-18T00:25:59;102525.00;;;-8.47;85.23
8653;BME280;4364;52.426;9.424;2022-12-18T00:28:26;102525.63;;;-8.43;84.98
8653;BME280;4364;52.426;9.424;2022-12-18T00:31:01;102527.66;;;-8.47;84.98
8653;BME280;4364;52.426;9.424;2022-12-18T00:33:28;102533.97;;;-8.49;84.70
8653;BME280;4364;52.426;9.424;2022-12-18T00:36:03;102544.63;;;-8.51;84.88
8653;BME280;4364;52.426;9.424;2022-12-18T00:38:31;102539.66;;;-8.55;84.36
8653;BME280;4364;52.426;9.424;2022-12-18T00:40:58;102545.47;;;-8.63;84.77
8653;BME280;4364;52.426;9.424;2022-12-18T00:43:25;102543.25;;;-8.57;84.55
8653;BME280;4364;52.426;9.424;2022-12-18T00:45:51;102531.13;;;-8.59;84.01
8653;BME280;4364;52.426;9.424;2022-12-18T00:48:18;102525.94;;;-8.61;84.48
8653;BME280;4364;52.426;9.424;2022-12-18T00:50:45;102536.41;;;-8.59;84.24
8653;BME280;4364;52.426;9.424;2022-12-18T00:53:11;102530.28;;;-8.60;84.60
8653;BME280;4364;52.426;9.424;2022-12-18T00:55:42;102531.31;;;-8.62;84.63
8653;BME280;4364;52.426;9.424;2022-12-18T00:58:10;102527.34;;;-8.55;84.68
8653;BME280;4364;52.426;9.424;2022-12-18T01:00:38;102532.16;;;-8.49;84.53
8653;BME280;4364;52.426;9.424;2022-12-18T01:03:05;102530.69;;;-8.53;84.54
8653;BME280;4364;52.426;9.424;2022-12-18T01:05:32;102532.63;;;-8.55;84.58
8653;BME280;4364;52.426;9.424;2022-12-18T01:07:59;102522.69;;;-8.64;84.29
8653;BME280;4364;52.426;9.424;2022-12-18T01:10:26;102523.50;;;-8.64;84.80
8653;BME280;4364;52.426;9.424;2022-12-18T01:12:56;102520.34;;;-8.69;84.50
8653;BME280;4364;52.426;9.424;2022-12-18T01:15:23;102517.41;;;-8.77;84.63
8653;BME280;4364;52.426;9.424;2022-12-18T01:17:52;102527.41;;;-8.82;84.50
8653;BME280;4364;52.426;9.424;2022-12-18T01:20:18;102519.59;;;-8.84;84.55
8653;BME280;4364;52.426;9.424;2022-12-18T01:22:45;102512.47;;;-8.82;84.18
8653;BME280;4364;52.426;9.424;2022-12-18T01:25:11;102516.97;;;-8.84;84.49
8653;BME280;4364;52.426;9.424;2022-12-18T01:27:38;102509.81;;;-8.82;84.57
8653;BME280;4364;52.426;9.424;2022-12-18T01:30:05;102518.16;;;-8.75;84.19
8653;BME280;4364;52.426;9.424;2022-12-18T01:32:32;102524.38;;;-8.76;84.34
8653;BME280;4364;52.426;9.424;2022-12-18T01:34:58;102532.38;;;-8.78;84.03
8653;BME280;4364;52.426;9.424;2022-12-18T01:37:27;102537.03;;;-8.81;83.81
8653;BME280;4364;52.426;9.424;2022-12-18T01:39:53;102540.06;;;-8.87;83.84
8653;BME280;4364;52.426;9.424;2022-12-18T01:42:21;102544.63;;;-8.89;83.86
8653;BME280;4364;52.426;9.424;2022-12-18T01:44:56;102548.00;;;-9.00;83.92
8653;BME280;4364;52.426;9.424;2022-12-18T01:53:05;102553.13;;;-8.99;84.01
8653;BME280;4364;52.426;9.424;2022-12-18T01:55:43;102554.00;;;-8.98;83.77
8653;BME280;4364;52.426;9.424;2022-12-18T01:58:11;102554.63;;;-8.95;83.57
8653;BME280;4364;52.426;9.424;2022-12-18T02:00:37;102545.44;;;-8.89;83.20
8653;BME280;4364;52.426;9.424;2022-12-18T02:03:04;102555.16;;;-8.89;83.20
8653;BME280;4364;52.426;9.424;2022-12-18T02:08:31;102557.47;;;-8.98;83.14
8653;BME280;4364;52.426;9.424;2022-12-18T02:11:08;102556.09;;;-9.03;83.07
8653;BME280;4364;52.426;9.424;2022-12-18T02:13:46;102552.84;;;-9.07;83.14
8653;BME280;4364;52.426;9.424;2022-12-18T02:16:31;102550.94;;;-9.05;83.29
8653;BME280;4364;52.426;9.424;2022-12-18T02:19:08;102545.66;;;-9.05;83.29
8653;BME280;4364;52.426;9.424;2022-12-18T02:21:54;102549.22;;;-9.06;83.17
8653;BME280;4364;52.426;9.424;2022-12-18T02:24:40;102554.69;;;-9.09;82.77
8653;BME280;4364;52.426;9.424;2022-12-18T02:27:09;102550.59;;;-9.13;82.82
8653;BME280;4364;52.426;9.424;2022-12-18T02:29:42;102544.25;;;-9.10;82.97
8653;BME280;4364;52.426;9.424;2022-12-18T02:32:14;102545.66;;;-9.05;82.88
8653;BME280;4364;52.426;9.424;2022-12-18T02:34:44;102543.44;;;-8.98;83.12
8653;BME280;4364;52.426;9.424;2022-12-18T02:37:16;102536.69;;;-9.02;82.63
8653;BME280;4364;52.426;9.424;2022-12-18T02:39:47;102530.78;;;-9.06;82.93
8653;BME280;4364;52.426;9.424;2022-12-18T02:42:16;102528.78;;;-9.02;82.97
8653;BME280;4364;52.426;9.424;2022-12-18T02:44:49;102517.72;;;-8.95;82.86
8653;BME280;4364;52.426;9.424;2022-12-18T02:47:21;102518.88;;;-8.86;83.01
8653;BME280;4364;52.426;9.424;2022-12-18T02:52:41;102517.81;;;-8.96;82.78
8653;BME280;4364;52.426;9.424;2022-12-18T03:00:45;102544.44;;;-9.26;83.12
8653;BME280;4364;52.426;9.424;2022-12-18T03:03:25;102541.19;;;-9.30;83.21
8653;BME280;4364;52.426;9.424;2022-12-18T03:06:07;102532.75;;;-9.35;83.09
8653;BME280;4364;52.426;9.424;2022-12-18T03:08:39;102528.84;;;-9.29;82.97
8653;BME280;4364;52.426;9.424;2022-12-18T03:11:10;102520.94;;;-9.29;82.82
8653;BME280;4364;52.426;9.424;2022-12-18T03:13:51;102524.06;;;-9.37;82.63
8653;BME280;4364;52.426;9.424;2022-12-18T03:16:26;102519.97;;;-9.41;82.62
8653;BME280;4364;52.426;9.424;2022-12-18T03:18:57;102518.25;;;-9.42;83.13
8653;BME280;4364;52.426;9.424;2022-12-18T03:21:32;102517.84;;;-9.36;83.36
8653;BME280;4364;52.426;9.424;2022-12-18T03:24:04;102525.56;;;-9.33;83.06
8653;BME280;4364;52.426;9.424;2022-12-18T03:26:35;102528.69;;;-9.41;82.84
8653;BME280;4364;52.426;9.424;2022-12-18T03:29:10;102540.88;;;-9.53;82.76
8653;BME280;4364;52.426;9.424;2022-12-18T03:31:40;102536.88;;;-9.58;82.99
8653;BME280;4364;52.426;9.424;2022-12-18T03:34:14;102543.81;;;-9.57;83.39
8653;BME280;4364;52.426;9.424;2022-12-18T03:36:45;102537.59;;;-9.56;83.54
8653;BME280;4364;52.426;9.424;2022-12-18T03:39:13;102535.31;;;-9.48;83.40
8653;BME280;4364;52.426;9.424;2022-12-18T03:41:56;102528.31;;;-9.35;83.58
8653;BME280;4364;52.426;9.424;2022-12-18T03:47:13;102543.56;;;-9.40;83.31
8653;BME280;4364;52.426;9.424;2022-12-18T03:52:32;102540.06;;;-9.53;82.95
8653;BME280;4364;52.426;9.424;2022-12-18T03:55:02;102535.72;;;-9.54;83.24
8653;BME280;4364;52.426;9.424;2022-12-18T03:57:31;102536.56;;;-9.54;83.31
8653;BME280;4364;52.426;9.424;2022-12-18T04:00:06;102530.34;;;-9.53;83.22
8653;BME280;4364;52.426;9.424;2022-12-18T04:02:53;102533.94;;;-9.54;83.19
8653;BME280;4364;52.426;9.424;2022-12-18T04:05:28;102530.16;;;-9.50;82.90
8653;BME280;4364;52.426;9.424;2022-12-18T04:07:57;102536.06;;;-9.46;83.00
8653;BME280;4364;52.426;9.424;2022-12-18T04:10:24;102542.06;;;-9.44;83.25
8653;BME280;4364;52.426;9.424;2022-12-18T04:12:50;102528.50;;;-9.38;83.11
8653;BME280;4364;52.426;9.424;2022-12-18T04:15:17;102530.53;;;-9.28;83.43
8653;BME280;4364;52.426;9.424;2022-12-18T04:17:48;102529.06;;;-9.20;83.42
8653;BME280;4364;52.426;9.424;2022-12-18T04:20:19;102531.81;;;-9.21;83.08
8653;BME280;4364;52.426;9.424;2022-12-18T04:22:46;102537.69;;;-9.31;83.11
8653;BME280;4364;52.426;9.424;2022-12-18T04:25:13;102539.69;;;-9.34;83.22
8653;BME280;4364;52.426;9.424;2022-12-18T04:27:52;102535.28;;;-9.34;83.40
8653;BME280;4364;52.426;9.424;2022-12-18T04:30:18;102536.94;;;-9.33;83.39
8653;BME280;4364;52.426;9.424;2022-12-18T04:32:45;102539.63;;;-9.20;83.51
8653;BME280;4364;52.426;9.424;2022-12-18T04:35:18;102551.19;;;-9.22;83.31
8653;BME280;4364;52.426;9.424;2022-12-18T04:37:45;102555.94;;;-9.27;83.08
8653;BME280;4364;52.426;9.424;2022-12-18T04:40:12;102547.69;;;-9.36;83.12
8653;BME280;4364;52.426;9.424;2022-12-18T04:42:42;102538.16;;;-9.51;83.06
8653;BME280;4364;52.426;9.424;2022-12-18T04:45:09;102536.56;;;-9.54;83.47
8653;BME280;4364;52.426;9.424;2022-12-18T04:47:35;102524.97;;;-9.51;83.63
8653;BME280;4364;52.426;9.424;2022-12-18T04:50:02;102524.25;;;-9.53;83.47
8653;BME280;4364;52.426;9.424;2022-12-18T04:52:28;102530.25;;;-9.51;83.15
8653;BME280;4364;52.426;9.424;2022-12-18T04:54:55;102523.28;;;-9.52;83.50
8653;BME280;4364;52.426;9.424;2022-12-18T04:57:21;102531.00;;;-9.49;83.17
8653;BME280;4364;52.426;9.424;2022-12-18T04:59:48;102526.34;;;-9.45;83.10
8653;BME280;4364;52.426;9.424;2022-12-18T05:02:14;102528.34;;;-9.49;83.56
8653;BME280;4364;52.426;9.424;2022-12-18T05:04:41;102527.97;;;-9.43;83.46
8653;BME280;4364;52.426;9.424;2022-12-18T05:07:08;102529.56;;;-9.40;83.21
8653;BME280;4364;52.426;9.424;2022-12-18T05:09:35;102538.00;;;-9.35;83.43
8653;BME280;4364;52.426;9.424;2022-12-18T05:12:01;102530.09;;;-9.35;83.67
8653;BME280;4364;52.426;9.424;2022-12-18T05:14:28;102543.91;;;-9.32;83.50
8653;BME280;4364;52.426;9.424;2022-12-18T05:16:55;102529.03;;;-9.33;83.78
8653;BME280;4364;52.426;9.424;2022-12-18T05:19:26;102544.84;;;-9.33;83.52
8653;BME280;4364;52.426;9.424;2022-12-18T05:21:52;102548.31;;;-9.32;83.58
8653;BME280;4364;52.426;9.424;2022-12-18T05:24:19;102542.50;;;-9.37;83.42
8653;BME280;4364;52.426;9.424;2022-12-18T05:26:46;102545.66;;;-9.45;83.24
8653;BME280;4364;52.426;9.424;2022-12-18T05:29:12;102554.31;;;-9.43;83.65
8653;BME280;4364;52.426;9.424;2022-12-18T05:31:39;102547.78;;;-9.37;83.77
8653;BME280;4364;52.426;9.424;2022-12-18T05:34:08;102553.72;;;-9.34;83.45
8653;BME280;4364;52.426;9.424;2022-12-18T05:36:35;102553.16;;;-9.39;83.30
8653;BME280;4364;52.426;9.424;2022-12-18T05:39:02;102561.72;;;-9.35;83.63
8653;BME280;4364;52.426;9.424;2022-12-18T05:41:29;102568.84;;;-9.37;83.65
8653;BME280;4364;52.426;9.424;2022-12-18T05:43:56;102560.59;;;-9.45;83.35
8653;BME280;4364;52.426;9.424;2022-12-18T05:46:22;102571.13;;;-9.58;83.36
8653;BME280;4364;52.426;9.424;2022-12-18T05:48:50;102578.38;;;-9.62;83.61
8653;BME280;4364;52.426;9.424;2022-12-18T05:51:20;102571.78;;;-9.69;83.79
8653;BME280;4364;52.426;9.424;2022-12-18T05:53:47;102577.38;;;-9.74;83.74
8653;BME280;4364;52.426;9.424;2022-12-18T05:56:19;102560.69;;;-9.74;83.84
8653;BME280;4364;52.426;9.424;2022-12-18T05:58:47;102561.44;;;-9.72;83.52
8653;BME280;4364;52.426;9.424;2022-12-18T06:01:18;102561.16;;;-9.68;83.39
8653;BME280;4364;52.426;9.424;2022-12-18T06:03:45;102561.91;;;-9.65;83.72
8653;BME280;4364;52.426;9.424;2022-12-18T06:06:18;102560.31;;;-9.68;83.77
8653;BME280;4364;52.426;9.424;2022-12-18T06:08:45;102563.47;;;-9.48;83.36
8653;BME280;4364;52.426;9.424;2022-12-18T06:11:12;102560.56;;;-9.58;83.37
8653;BME280;4364;52.426;9.424;2022-12-18T06:13:39;102562.84;;;-9.66;83.84
8653;BME280;4364;52.426;9.424;2022-12-18T06:16:07;102569.16;;;-9.69;83.67
8653;BME280;4364;52.426;9.424;2022-12-18T06:18:34;102571.88;;;-9.71;83.78
8653;BME280;4364;52.426;9.424;2022-12-18T06:21:03;102565.97;;;-9.74;83.85
8653;BME280;4364;52.426;9.424;2022-12-18T06:23:29;102568.34;;;-9.84;83.75
8653;BME280;4364;52.426;9.424;2022-12-18T06:25:56;102568.66;;;-9.89;83.66
8653;BME280;4364;52.426;9.424;2022-12-18T06:28:23;102565.31;;;-9.78;83.83
8653;BME280;4364;52.426;9.424;2022-12-18T06:30:50;102564.50;;;-9.78;83.76
8653;BME280;4364;52.426;9.424;2022-12-18T06:33:16;102565.97;;;-9.74;83.82
8653;BME280;4364;52.426;9.424;2022-12-18T06:35:43;102571.66;;;-9.80;83.40
8653;BME280;4364;52.426;9.424;2022-12-18T06:38:10;102576.66;;;-9.90;83.68
8653;BME280;4364;52.426;9.424;2022-12-18T06:40:37;102580.69;;;-9.99;83.73
8653;BME280;4364;52.426;9.424;2022-12-18T06:43:05;102571.00;;;-9.98;84.31
8653;BME280;4364;52.426;9.424;2022-12-18T06:45:32;102578.72;;;-9.95;84.08
8653;BME280;4364;52.426;9.424;2022-12-18T06:47:58;102581.44;;;-9.97;84.24
8653;BME280;4364;52.426;9.424;2022-12-18T06:50:25;102582.38;;;-9.98;84.17
8653;BME280;4364;52.426;9.424;2022-12-18T06:52:51;102588.47;;;-9.97;83.94
8653;BME280;4364;52.426;9.424;2022-12-18T06:55:18;102590.66;;;-10.04;83.60
8653;BME280;4364;52.426;9.424;2022-12-18T06:57:44;102601.72;;;-9.99;83.68
8653;BME280;4364;52.426;9.424;2022-12-18T07:00:11;102597.25;;;-9.97;83.74
8653;BME280;4364;52.426;9.424;2022-12-18T07:02:38;102597.44;;;-10.00;84.01
8653;BME280;4364;52.426;9.424;2022-12-18T07:05:05;102597.91;;;-10.08;83.64
8653;BME280;4364;52.426;9.424;2022-12-18T07:07:36;102600.25;;;-10.03;84.14
8653;BME280;4364;52.426;9.424;2022-12-18T07:10:03;102606.16;;;-9.99;84.19
8653;BME280;4364;52.426;9.424;2022-12-18T07:12:30;102609.75;;;-10.00;83.62
8653;BME280;4364;52.426;9.424;2022-12-18T07:14:56;102609.16;;;-10.06;83.57
8653;BME280;4364;52.426;9.424;2022-12-18T07:17:23;102615.03;;;-10.00;83.83
8653;BME280;4364;52.426;9.424;2022-12-18T07:19:49;102614.72;;;-9.96;83.76
8653;BME280;4364;52.426;9.424;2022-12-18T07:22:16;102620.94;;;-9.97;83.50
8653;BME280;4364;52.426;9.424;2022-12-18T07:24:43;102626.09;;;-9.95;83.98
8653;BME280;4364;52.426;9.424;2022-12-18T07:27:09;102622.59;;;-9.96;83.50
8653;BME280;4364;52.426;9.424;2022-12-18T07:29:35;102624.03;;;-9.90;83.68
8653;BME280;4364;52.426;9.424;2022-12-18T07:32:03;102623.16;;;-9.91;83.58
8653;BME280;4364;52.426;9.424;2022-12-18T07:34:30;102629.38;;;-9.92;83.58
8653;BME280;4364;52.426;9.424;2022-12-18T07:36:57;102629.22;;;-9.89;83.70
8653;BME280;4364;52.426;9.424;2022-12-18T07:39:24;102633.50;;;-9.88;83.82
8653;BME280;4364;52.426;9.424;2022-12-18T07:41:50;102627.31;;;-9.87;83.52
8653;BME280;4364;52.426;9.424;2022-12-18T07:44:38;102623.25;;;-9.92;83.63
8653;BME280;4364;52.426;9.424;2022-12-18T07:47:05;102625.25;;;-9.81;83.76
8653;BME280;4364;52.426;9.424;2022-12-18T07:49:37;102624.31;;;-9.80;83.50
8653;BME280;4364;52.426;9.424;2022-12-18T07:52:04;102620.25;;;-9.86;83.64
8653;BME280;4364;52.426;9.424;2022-12-18T07:54:30;102612.94;;;-9.95;83.34
8653;BME280;4364;52.426;9.424;2022-12-18T07:56:57;102611.06;;;-9.93;83.96
8653;BME280;4364;52.426;9.424;2022-12-18T07:59:23;102603.34;;;-9.82;83.77
8653;BME280;4364;52.426;9.424;2022-12-18T08:01:50;102597.75;;;-9.77;84.16
8653;BME280;4364;52.426;9.424;2022-12-18T08:04:17;102605.88;;;-9.80;83.88
8653;BME280;4364;52.426;9.424;2022-12-18T08:06:43;102611.78;;;-9.91;83.64
8653;BME280;4364;52.426;9.424;2022-12-18T08:09:13;102613.69;;;-9.93;83.84
8653;BME280;4364;52.426;9.424;2022-12-18T08:11:40;102613.03;;;-9.97;83.78
8653;BME280;4364;52.426;9.424;2022-12-18T08:14:06;102613.69;;;-9.93;84.19
8653;BME280;4364;52.426;9.424;2022-12-18T08:16:33;102617.34;;;-9.96;84.13
8653;BME280;4364;52.426;9.424;2022-12-18T08:18:59;102609.44;;;-9.81;83.95
8653;BME280;4364;52.426;9.424;2022-12-18T08:21:29;102616.41;;;-9.80;83.87
8653;BME280;4364;52.426;9.424;2022-12-18T08:23:59;102601.34;;;-9.78;84.11
8653;BME280;4364;52.426;9.424;2022-12-18T08:26:29;102590.13;;;-9.68;84.39
8653;BME280;4364;52.426;9.424;2022-12-18T08:28:57;102595.72;;;-9.45;84.45
8653;BME280;4364;52.426;9.424;2022-12-18T08:31:26;102590.81;;;-9.37;84.38
8653;BME280;4364;52.426;9.424;2022-12-18T08:33:54;102600.38;;;-9.36;83.84
8653;BME280;4364;52.426;9.424;2022-12-18T08:36:21;102595.63;;;-9.43;84.09
8653;BME280;4364;52.426;9.424;2022-12-18T08:38:48;102588.94;;;-9.49;84.10
8653;BME280;4364;52.426;9.424;2022-12-18T08:41:16;102589.50;;;-9.44;84.11
8653;BME280;4364;52.426;9.424;2022-12-18T08:43:43;102583.09;;;-9.40;84.17
8653;BME280;4364;52.426;9.424;2022-12-18T08:46:37;102593.25;;;-9.34;84.19
8653;BME280;4364;52.426;9.424;2022-12-18T08:49:05;102577.97;;;-9.28;84.42
8653;BME280;4364;52.426;9.424;2022-12-18T08:51:33;102581.50;;;-9.02;84.84
8653;BME280;4364;52.426;9.424;2022-12-18T08:54:00;102583.22;;;-8.88;84.89
8653;BME280;4364;52.426;9.424;2022-12-18T08:56:28;102579.03;;;-8.78;84.99
8653;BME280;4364;52.426;9.424;2022-12-18T08:58:56;102574.16;;;-8.59;85.66
8653;BME280;4364;52.426;9.424;2022-12-18T09:01:23;102569.69;;;-8.20;86.49
8653;BME280;4364;52.426;9.424;2022-12-18T09:03:50;102570.41;;;-7.68;87.77
8653;BME280;4364;52.426;9.424;2022-12-18T09:06:19;102574.13;;;-7.46;87.61
8653;BME280;4364;52.426;9.424;2022-12-18T09:08:46;102570.06;;;-7.39;87.19
8653;BME280;4364;52.426;9.424;2022-12-18T09:11:15;102563.91;;;-6.91;87.89
8653;BME280;4364;52.426;9.424;2022-12-18T09:13:44;102554.91;;;-6.77;87.81
8653;BME280;4364;52.426;9.424;2022-12-18T09:16:11;102553.03;;;-6.53;87.79
8653;BME280;4364;52.426;9.424;2022-12-18T09:18:38;102554.22;;;-6.68;87.21
8653;BME280;4364;52.426;9.424;2022-12-18T09:21:15;102544.09;;;-6.52;87.93
8653;BME280;4364;52.426;9.424;2022-12-18T09:23:43;102536.06;;;-6.39;87.80
8653;BME280;4364;52.426;9.424;2022-12-18T09:26:09;102536.41;;;-6.43;87.44
8653;BME280;4364;52.426;9.424;2022-12-18T09:28:36;102533.28;;;-6.48;87.60
8653;BME280;4364;52.426;9.424;2022-12-18T09:31:06;102549.91;;;-6.46;88.09
8653;BME280;4364;52.426;9.424;2022-12-18T09:33:37;102537.50;;;-6.35;88.09
8653;BME280;4364;52.426;9.424;2022-12-18T09:36:05;102539.53;;;-6.04;87.88
8653;BME280;4364;52.426;9.424;2022-12-18T09:38:33;102538.06;;;-5.65;86.95
8653;BME280;4364;52.426;9.424;2022-12-18T09:41:06;102550.75;;;-5.68;86.69
8653;BME280;4364;52.426;9.424;2022-12-18T09:43:49;102558.81;;;-5.70;86.90
8653;BME280;4364;52.426;9.424;2022-12-18T09:46:27;102563.16;;;-5.69;86.87
8653;BME280;4364;52.426;9.424;2022-12-18T09:48:59;102576.28;;;-5.67;86.81
8653;BME280;4364;52.426;9.424;2022-12-18T09:51:30;102569.75;;;-5.63;87.15
8653;BME280;4364;52.426;9.424;2022-12-18T09:54:03;102574.91;;;-5.50;87.34
8653;BME280;4364;52.426;9.424;2022-12-18T09:56:35;102556.56;;;-5.42;87.21
8653;BME280;4364;52.426;9.424;2022-12-18T09:59:04;102562.69;;;-5.30;87.09
8653;BME280;4364;52.426;9.424;2022-12-18T10:01:32;102561.47;;;-5.05;86.59
8653;BME280;4364;52.426;9.424;2022-12-18T10:04:09;102575.47;;;-5.03;86.27
8653;BME280;4364;52.426;9.424;2022-12-18T10:06:54;102576.66;;;-4.96;86.26
8653;BME280;4364;52.426;9.424;2022-12-18T10:09:53;102573.66;;;-4.81;85.71
8653;BME280;4364;52.426;9.424;2022-12-18T10:12:40;102577.50;;;-4.74;85.58
8653;BME280;4364;52.426;9.424;2022-12-18T10:15:27;102574.88;;;-4.65;85.23
8653;BME280;4364;52.426;9.424;2022-12-18T10:20:50;102553.91;;;-4.06;82.64
8653;BME280;4364;52.426;9.424;2022-12-18T10:26:03;102552.94;;;-4.05;82.87
8653;BME280;4364;52.426;9.424;2022-12-18T10:28:32;102554.50;;;-4.02;83.10
8653;BME280;4364;52.426;9.424;2022-12-18T10:30:59;102553.31;;;-3.79;82.67
8653;BME280;4364;52.426;9.424;2022-12-18T10:33:31;102540.88;;;-3.59;81.01
8653;BME280;4364;52.426;9.424;2022-12-18T10:35:59;102539.06;;;-3.58;81.29
8653;BME280;4364;52.426;9.424;2022-12-18T10:38:30;102545.34;;;-3.69;81.65
8653;BME280;4364;52.426;9.424;2022-12-18T10:43:31;102546.75;;;-3.26;81.08
8653;BME280;4364;52.426;9.424;2022-12-18T10:46:08;102540.19;;;-3.31;80.73
8653;BME280;4364;52.426;9.424;2022-12-18T10:51:35;102527.16;;;-2.95;79.31
8653;BME280;4364;52.426;9.424;2022-12-18T10:54:05;102523.34;;;-3.03;78.96
8653;BME280;4364;52.426;9.424;2022-12-18T10:56:36;102517.59;;;-2.88;78.43
8653;BME280;4364;52.426;9.424;2022-12-18T10:59:07;102524.78;;;-2.99;78.71
8653;BME280;4364;52.426;9.424;2022-12-18T11:01:54;102515.19;;;-2.72;78.23
8653;BME280;4364;52.426;9.424;2022-12-18T11:04:29;102504.66;;;-2.73;77.76
8653;BME280;4364;52.426;9.424;2022-12-18T11:07:03;102517.25;;;-2.66;78.32
8653;BME280;4364;52.426;9.424;2022-12-18T11:09:33;102517.84;;;-2.72;78.32
8653;BME280;4364;52.426;9.424;2022-12-18T11:12:15;102513.47;;;-2.63;78.49
8653;BME280;4364;52.426;9.424;2022-12-18T11:14:46;102518.34;;;-2.49;77.40
8653;BME280;4364;52.426;9.424;2022-12-18T11:17:31;102519.63;;;-2.63;77.19
8653;BME280;4364;52.426;9.424;2022-12-18T11:20:02;102512.88;;;-2.47;77.10
8653;BME280;4364;52.426;9.424;2022-12-18T11:22:32;102514.13;;;-2.51;76.37
8653;BME280;4364;52.426;9.424;2022-12-18T11:25:18;102508.81;;;-2.51;76.60
8653;BME280;4364;52.426;9.424;2022-12-18T11:28:00;102513.72;;;-2.56;76.42
8653;BME280;4364;52.426;9.424;2022-12-18T11:30:33;102499.94;;;-2.42;75.58
8653;BME280;4364;52.426;9.424;2022-12-18T11:35:44;102485.00;;;-2.25;75.33
8653;BME280;4364;52.426;9.424;2022-12-18T11:40:51;102475.03;;;-2.23;74.86
8653;BME280;4364;52.426;9.424;2022-12-18T11:43:28;102473.13;;;-2.13;74.88
8653;BME280;4364;52.426;9.424;2022-12-18T11:46:02;102468.72;;;-2.22;74.89
8653;BME280;4364;52.426;9.424;2022-12-18T11:48:36;102454.63;;;-2.14;74.79
8653;BME280;4364;52.426;9.424;2022-12-18T11:51:11;102454.03;;;-2.08;73.59
8653;BME280;4364;52.426;9.424;2022-12-18T11:53:39;102441.31;;;-1.96;73.44
8653;BME280;4364;52.426;9.424;2022-12-18T11:56:39;102444.97;;;-1.97;73.24
8653;BME280;4364;52.426;9.424;2022-12-18T11:59:29;102452.81;;;-1.96;73.57
8653;BME280;4364;52.426;9.424;2022-12-18T12:02:16;102447.78;;;-1.99;73.75
8653;BME280;4364;52.426;9.424;2022-12-18T12:05:10;102445.69;;;-1.95;73.59
8653;BME280;4364;52.426;9.424;2022-12-18T12:07:55;102435.31;;;-1.98;73.95
8653;BME280;4364;52.426;9.424;2022-12-18T12:16:17;102441.53;;;-2.08;73.29
8653;BME280;4364;52.426;9.424;2022-12-18T12:21:28;102434.59;;;-2.18;73.14
8653;BME280;4364;52.426;9.424;2022-12-18T12:26:38;102429.88;;;-2.07;72.58
8653;BME280;4364;52.426;9.424;2022-12-18T12:32:07;102415.16;;;-2.11;73.26
8653;BME280;4364;52.426;9.424;2022-12-18T12:37:40;102394.00;;;-2.12;72.83
8653;BME280;4364;52.426;9.424;2022-12-18T12:40:18;102388.44;;;-2.19;73.41
8653;BME280;4364;52.426;9.424;2022-12-18T12:43:16;102389.06;;;-2.25;73.29
8653;BME280;4364;52.426;9.424;2022-12-18T12:45:53;102392.19;;;-2.12;73.60
8653;BME280;4364;52.426;9.424;2022-12-18T12:48:46;102388.81;;;-1.96;73.03
8653;BME280;4364;52.426;9.424;2022-12-18T12:51:30;102390.88;;;-1.90;72.14
8653;BME280;4364;52.426;9.424;2022-12-18T12:53:59;102382.28;;;-1.83;71.45
8653;BME280;4364;52.426;9.424;2022-12-18T12:56:54;102390.59;;;-1.87;71.71
8653;BME280;4364;52.426;9.424;2022-12-18T13:02:04;102384.09;;;-1.84;70.52
8653;BME280;4364;52.426;9.424;2022-12-18T13:04:42;102379.69;;;-1.93;71.56
8653;BME280;4364;52.426;9.424;2022-12-18T13:07:26;102382.13;;;-1.82;70.19
8653;BME280;4364;52.426;9.424;2022-12-18T13:10:22;102391.50;;;-1.96;70.80
8653;BME280;4364;52.426;9.424;2022-12-18T13:20:44;102382.22;;;-1.74;69.96
8653;BME280;4364;52.426;9.424;2022-12-18T13:29:58;102383.31;;;-1.58;69.02
8653;BME280;4364;52.426;9.424;2022-12-18T13:33:40;102380.44;;;-1.65;70.24
8653;BME280;4364;52.426;9.424;2022-12-18T13:41:27;102362.97;;;-1.59;69.51
8653;BME280;4364;52.426;9.424;2022-12-18T13:45:37;102357.72;;;-1.69;70.39
8653;BME280;4364;52.426;9.424;2022-12-18T13:48:15;102350.94;;;-1.63;70.09
8653;BME280;4364;52.426;9.424;2022-12-18T13:50:42;102355.19;;;-1.71;70.46
8653;BME280;4364;52.426;9.424;2022-12-18T13:53:27;102345.75;;;-1.65;70.82
8653;BME280;4364;52.426;9.424;2022-12-18T13:55:56;102338.06;;;-1.68;70.41
8653;BME280;4364;52.426;9.424;2022-12-18T13:58:23;102335.75;;;-1.63;70.29
8653;BME280;4364;52.426;9.424;2022-12-18T14:00:50;102329.75;;;-1.65;70.41
8653;BME280;4364;52.426;9.424;2022-12-18T14:03:20;102324.41;;;-1.65;69.80
8653;BME280;4364;52.426;9.424;2022-12-18T14:06:06;102325.03;;;-1.71;70.39
8653;BME280;4364;52.426;9.424;2022-12-18T14:08:38;102326.41;;;-1.67;69.94
8653;BME280;4364;52.426;9.424;2022-12-18T14:11:07;102319.84;;;-1.73;70.46
8653;BME280;4364;52.426;9.424;2022-12-18T14:13:40;102305.84;;;-1.75;70.48
8653;BME280;4364;52.426;9.424;2022-12-18T14:16:12;102297.63;;;-1.81;70.79
8653;BME280;4364;52.426;9.424;2022-12-18T14:18:56;102297.63;;;-1.81;70.28
8653;BME280;4364;52.426;9.424;2022-12-18T14:21:45;102285.91;;;-1.89;70.86
8653;BME280;4364;52.426;9.424;2022-12-18T14:24:19;102290.22;;;-1.88;70.68
8653;BME280;4364;52.426;9.424;2022-12-18T14:26:48;102288.56;;;-1.89;70.04
8653;BME280;4364;52.426;9.424;2022-12-18T14:32:04;102286.22;;;-1.92;70.52
8653;BME280;4364;52.426;9.424;2022-12-18T14:34:33;102284.47;;;-2.01;71.00
8653;BME280;4364;52.426;9.424;2022-12-18T14:37:00;102278.31;;;-2.01;71.51
8653;BME280;4364;52.426;9.424;2022-12-18T14:39:26;102284.69;;;-2.12;71.42
8653;BME280;4364;52.426;9.424;2022-12-18T14:41:53;102285.25;;;-2.27;72.10
8653;BME280;4364;52.426;9.424;2022-12-18T14:44:19;102288.16;;;-2.38;72.53
8653;BME280;4364;52.426;9.424;2022-12-18T14:46:49;102283.88;;;-2.31;72.51
8653;BME280;4364;52.426;9.424;2022-12-18T14:49:28;102273.28;;;-2.22;72.78
8653;BME280;4364;52.426;9.424;2022-12-18T14:52:00;102282.38;;;-2.33;72.71
8653;BME280;4364;52.426;9.424;2022-12-18T14:54:28;102283.66;;;-2.19;71.65
8653;BME280;4364;52.426;9.424;2022-12-18T14:57:19;102283.19;;;-2.33;72.36